Time,TemperatureF,DewpointF,PressureIn,WindDirection,WindDirectionDegrees,WindSpeedMPH,WindSpeedGustMPH,Humidity,HourlyPrecipIn,Conditions,Clouds,dailyrainin,SoftwareType,DateUTC
2013-08-25 00:00:00,57.3,55.0,30.29,NNE,17,0.0,0.0,92,0.00,,,0.00,Wunderground v.1.15,2013-08-25 04:00:00,
2013-08-25 00:05:00,57.2,55.2,30.29,NNE,17,0.0,0.0,93,0.00,,,0.00,Wunderground v.1.15,2013-08-25 04:05:00,
2013-08-25 00:10:00,56.9,54.9,30.29,NNE,17,0.0,0.0,93,0.00,,,0.00,Wunderground v.1.15,2013-08-25 04:10:00,
2013-08-25 00:15:00,56.6,54.6,30.29,NNE,17,0.0,0.0,93,0.00,,,0.00,Wunderground v.1.15,2013-08-25 04:15:00,
2013-08-25 00:20:00,56.3,54.3,30.28,NNE,17,0.0,0.0,93,0.00,,,0.00,Wunderground v.1.15,2013-08-25 04:20:00,
2013-08-25 00:30:00,55.7,54.0,30.28,NNE,17,0.0,0.0,94,0.00,,,0.00,Wunderground v.1.15,2013-08-25 04:30:00,
2013-08-25 00:35:00,55.6,53.9,30.28,NNE,17,0.0,0.0,94,0.00,,,0.00,Wunderground v.1.15,2013-08-25 04:35:00,
2013-08-25 00:40:00,55.3,53.6,30.28,NNE,17,0.0,0.0,94,0.00,,,0.00,Wunderground v.1.15,2013-08-25 04:40:00,
2013-08-25 00:50:00,54.8,53.1,30.28,NNE,17,0.0,0.0,94,0.00,,,0.00,Wunderground v.1.15,2013-08-25 04:50:00,
2013-08-25 01:00:00,54.5,53.1,30.28,NNE,17,0.0,0.0,95,0.00,,,0.00,Wunderground v.1.15,2013-08-25 05:00:00,
2013-08-25 01:05:00,54.4,53.0,30.29,NNE,17,0.0,0.0,95,0.00,,,0.00,Wunderground v.1.15,2013-08-25 05:05:00,
2013-08-25 01:10:00,54.2,52.8,30.29,NNE,17,0.0,0.0,95,0.00,,,0.00,Wunderground v.1.15,2013-08-25 05:10:00,
2013-08-25 01:20:00,53.9,52.5,30.29,NNE,17,0.0,0.0,95,0.00,,,0.00,Wunderground v.1.15,2013-08-25 05:20:00,
2013-08-25 01:30:00,53.6,52.2,30.29,NNE,17,0.0,0.0,95,0.00,,,0.00,Wunderground v.1.15,2013-08-25 05:30:00,
2013-08-25 01:40:00,53.6,52.5,30.29,NNE,17,0.0,0.0,96,0.00,,,0.00,Wunderground v.1.15,2013-08-25 05:40:00,
2013-08-25 01:50:00,53.5,52.4,30.29,NNE,17,0.0,0.0,96,0.00,,,0.00,Wunderground v.1.15,2013-08-25 05:50:00,
2013-08-25 02:00:00,53.8,52.7,30.29,NNE,17,0.0,0.0,96,0.00,,,0.00,Wunderground v.1.15,2013-08-25 06:00:00,
2013-08-25 02:10:00,53.3,52.2,30.29,NNE,17,0.0,0.0,96,0.00,,,0.00,Wunderground v.1.15,2013-08-25 06:10:00,
2013-08-25 02:15:00,53.3,52.5,30.29,NNE,17,0.0,0.0,97,0.00,,,0.00,Wunderground v.1.15,2013-08-25 06:15:00,
2013-08-25 02:20:00,53.2,52.4,30.29,NNE,17,0.0,0.0,97,0.00,,,0.00,Wunderground v.1.15,2013-08-25 06:20:00,
2013-08-25 02:30:00,52.9,52.1,30.28,NNE,17,0.0,0.0,97,0.00,,,0.00,Wunderground v.1.15,2013-08-25 06:30:00,
2013-08-25 02:40:00,52.8,52.0,30.28,NNE,17,0.0,0.0,97,0.00,,,0.00,Wunderground v.1.15,2013-08-25 06:40:00,
2013-08-25 02:50:00,53.1,52.3,30.28,NNE,17,0.0,0.0,97,0.00,,,0.00,Wunderground v.1.15,2013-08-25 06:50:00,
2013-08-25 03:00:00,53.3,52.8,30.29,NNE,17,0.0,0.0,98,0.00,,,0.00,Wunderground v.1.15,2013-08-25 07:00:00,
2013-08-25 03:10:00,53.2,52.7,30.29,NNE,17,0.0,0.0,98,0.00,,,0.00,Wunderground v.1.15,2013-08-25 07:10:00,
2013-08-25 03:20:00,53.1,52.6,30.29,NNE,17,0.0,0.0,98,0.00,,,0.00,Wunderground v.1.15,2013-08-25 07:20:00,
2013-08-25 03:30:00,52.9,52.4,30.29,NNE,17,0.0,0.0,98,0.00,,,0.00,Wunderground v.1.15,2013-08-25 07:30:00,
2013-08-25 03:40:00,52.8,52.3,30.28,NNE,17,0.0,0.0,98,0.00,,,0.00,Wunderground v.1.15,2013-08-25 07:40:00,
2013-08-25 03:50:00,52.5,52.0,30.28,NNE,17,0.0,0.0,98,0.00,,,0.00,Wunderground v.1.15,2013-08-25 07:50:00,
2013-08-25 04:00:00,52.5,52.0,30.29,NNE,17,0.0,0.0,98,0.00,,,0.00,Wunderground v.1.15,2013-08-25 08:00:00,
2013-08-25 04:10:00,52.3,51.8,30.29,NNE,17,0.0,0.0,98,0.00,,,0.00,Wunderground v.1.15,2013-08-25 08:10:00,
2013-08-25 04:20:00,52.2,51.7,30.29,NNE,17,0.0,0.0,98,0.00,,,0.00,Wunderground v.1.15,2013-08-25 08:20:00,
2013-08-25 04:25:00,52.0,51.5,30.29,NNE,17,0.0,0.0,98,0.00,,,0.00,Wunderground v.1.15,2013-08-25 08:25:00,
2013-08-25 04:35:00,52.3,52.0,30.29,NNE,17,0.0,0.0,99,0.00,,,0.00,Wunderground v.1.15,2013-08-25 08:35:00,
2013-08-25 04:45:00,52.3,52.0,30.29,NNE,17,0.0,0.0,99,0.00,,,0.00,Wunderground v.1.15,2013-08-25 08:45:00,
2013-08-25 04:50:00,52.5,52.2,30.29,NNE,17,0.0,0.0,99,0.00,,,0.00,Wunderground v.1.15,2013-08-25 08:50:00,
2013-08-25 04:55:00,52.5,52.2,30.30,NNE,17,0.0,0.0,99,0.00,,,0.00,Wunderground v.1.15,2013-08-25 08:55:00,
2013-08-25 05:00:00,52.5,52.2,30.30,NNE,17,0.0,0.0,99,0.00,,,0.00,Wunderground v.1.15,2013-08-25 09:00:00,
2013-08-25 05:10:00,52.3,52.0,30.31,NNE,17,0.0,0.0,99,0.00,,,0.00,Wunderground v.1.15,2013-08-25 09:10:00,
2013-08-25 05:20:00,52.2,51.9,30.31,NNE,17,0.0,0.0,99,0.00,,,0.00,Wunderground v.1.15,2013-08-25 09:20:00,
2013-08-25 05:30:00,52.2,51.9,30.31,NNE,17,0.0,0.0,99,0.00,,,0.00,Wunderground v.1.15,2013-08-25 09:30:00,
2013-08-25 05:40:00,52.2,51.9,30.31,NNE,17,0.0,0.0,99,0.00,,,0.00,Wunderground v.1.15,2013-08-25 09:40:00,
2013-08-25 05:50:00,51.9,51.6,30.32,NNE,17,0.0,0.0,99,0.00,,,0.00,Wunderground v.1.15,2013-08-25 09:50:00,
2013-08-25 06:00:00,51.9,51.6,30.32,NNE,17,0.0,0.0,99,0.00,,,0.00,Wunderground v.1.15,2013-08-25 10:00:00,
2013-08-25 06:05:00,51.7,51.4,30.32,NNE,17,0.0,0.0,99,0.00,,,0.00,Wunderground v.1.15,2013-08-25 10:05:00,
2013-08-25 06:15:00,51.6,51.3,30.33,NNE,17,0.0,0.0,99,0.00,,,0.00,Wunderground v.1.15,2013-08-25 10:15:00,
2013-08-25 06:25:00,51.4,51.1,30.33,NNE,17,0.0,0.0,99,0.00,,,0.00,Wunderground v.1.15,2013-08-25 10:25:00,
2013-08-25 06:30:00,51.3,51.0,30.33,NNE,17,0.0,0.0,99,0.00,,,0.00,Wunderground v.1.15,2013-08-25 10:30:00,
2013-08-25 06:40:00,51.1,50.8,30.33,NNE,17,0.0,0.0,99,0.00,,,0.00,Wunderground v.1.15,2013-08-25 10:40:00,
2013-08-25 06:50:00,51.0,50.7,30.34,NNE,17,0.0,0.0,99,0.00,,,0.00,Wunderground v.1.15,2013-08-25 10:50:00,
2013-08-25 07:00:00,51.0,50.7,30.34,NNE,17,0.0,0.0,99,0.00,,,0.00,Wunderground v.1.15,2013-08-25 11:00:00,
2013-08-25 07:10:00,51.0,50.7,30.35,NNE,17,0.0,0.0,99,0.00,,,0.00,Wunderground v.1.15,2013-08-25 11:10:00,
2013-08-25 07:20:00,51.3,51.3,30.36,NNE,17,0.0,0.0,100,0.00,,,0.00,Wunderground v.1.15,2013-08-25 11:20:00,
2013-08-25 07:25:00,51.6,51.6,30.36,NNE,17,0.0,0.0,100,0.00,,,0.00,Wunderground v.1.15,2013-08-25 11:25:00,
2013-08-25 07:30:00,51.9,51.9,30.37,NNE,17,0.0,0.0,100,0.00,,,0.00,Wunderground v.1.15,2013-08-25 11:30:00,
2013-08-25 07:40:00,52.3,52.3,30.37,NNE,17,0.0,0.0,100,0.00,,,0.00,Wunderground v.1.15,2013-08-25 11:40:00,
2013-08-25 07:45:00,52.6,52.6,30.38,NNE,17,0.0,0.0,100,0.00,,,0.00,Wunderground v.1.15,2013-08-25 11:45:00,
2013-08-25 07:50:00,52.9,52.9,30.37,NNE,17,0.0,0.0,100,0.00,,,0.00,Wunderground v.1.15,2013-08-25 11:50:00,
2013-08-25 08:00:00,53.6,53.6,30.37,NNE,17,0.0,0.0,100,0.00,,,0.00,Wunderground v.1.15,2013-08-25 12:00:00,
2013-08-25 08:10:00,54.5,54.5,30.38,NNE,17,0.0,0.0,100,0.00,,,0.00,Wunderground v.1.15,2013-08-25 12:10:00,
2013-08-25 08:20:00,55.3,55.3,30.38,NNE,17,0.0,1.0,100,0.00,,,0.00,Wunderground v.1.15,2013-08-25 12:20:00,
2013-08-25 08:30:00,56.2,55.9,30.38,NNE,17,0.0,0.0,99,0.00,,,0.00,Wunderground v.1.15,2013-08-25 12:30:00,
2013-08-25 08:35:00,56.5,56.2,30.38,NNE,17,0.0,0.0,99,0.00,,,0.00,Wunderground v.1.15,2013-08-25 12:35:00,
2013-08-25 08:40:00,56.7,56.1,30.38,NNE,17,0.0,0.0,98,0.00,,,0.00,Wunderground v.1.15,2013-08-25 12:40:00,
2013-08-25 08:50:00,57.5,56.9,30.38,NNE,17,0.0,0.0,98,0.00,,,0.00,Wunderground v.1.15,2013-08-25 12:50:00,
2013-08-25 09:00:00,58.3,57.5,30.38,NNE,17,0.0,0.0,97,0.00,,,0.00,Wunderground v.1.15,2013-08-25 13:00:00,
2013-08-25 09:10:00,59.2,57.8,30.37,NNE,17,0.0,0.0,95,0.00,,,0.00,Wunderground v.1.15,2013-08-25 13:10:00,
2013-08-25 09:20:00,60.2,58.5,30.38,NNE,17,0.0,0.0,94,0.00,,,0.00,Wunderground v.1.15,2013-08-25 13:20:00,
2013-08-25 09:30:00,61.0,58.7,30.38,NNE,17,1.0,1.0,92,0.00,,,0.00,Wunderground v.1.15,2013-08-25 13:30:00,
2013-08-25 09:40:00,61.8,59.1,30.38,NNE,17,0.0,0.0,91,0.00,,,0.00,Wunderground v.1.15,2013-08-25 13:40:00,
2013-08-25 09:50:00,62.7,59.7,30.38,NNE,17,0.0,0.0,90,0.00,,,0.00,Wunderground v.1.15,2013-08-25 13:50:00,
2013-08-25 10:00:00,63.5,59.9,30.37,NNE,17,0.0,0.0,88,0.00,,,0.00,Wunderground v.1.15,2013-08-25 14:00:00,
2013-08-25 10:10:00,64.5,59.6,30.38,NNE,17,0.0,0.0,84,0.00,,,0.00,Wunderground v.1.15,2013-08-25 14:10:00,
2013-08-25 10:15:00,64.8,59.2,30.38,NNE,17,0.0,0.0,82,0.00,,,0.00,Wunderground v.1.15,2013-08-25 14:15:00,
2013-08-25 10:20:00,65.3,60.7,30.38,NNE,17,0.0,0.0,85,0.00,,,0.00,Wunderground v.1.15,2013-08-25 14:20:00,
2013-08-25 10:25:00,65.6,60.6,30.38,NNE,17,0.0,0.0,84,0.00,,,0.00,Wunderground v.1.15,2013-08-25 14:25:00,
2013-08-25 10:35:00,66.4,60.4,30.38,NNE,17,0.0,0.0,81,0.00,,,0.00,Wunderground v.1.15,2013-08-25 14:35:00,
2013-08-25 10:40:00,67.1,60.0,30.37,NNE,17,0.0,0.0,78,0.00,,,0.00,Wunderground v.1.15,2013-08-25 14:40:00,
2013-08-25 10:45:00,67.8,60.7,30.37,NNE,17,0.0,0.0,78,0.00,,,0.00,Wunderground v.1.15,2013-08-25 14:45:00,
2013-08-25 10:55:00,68.6,59.2,30.36,NNE,17,0.0,0.0,72,0.00,,,0.00,Wunderground v.1.15,2013-08-25 14:55:00,
2013-08-25 11:05:00,69.3,60.3,30.36,NNE,17,0.0,0.0,73,0.00,,,0.00,Wunderground v.1.15,2013-08-25 15:05:00,
2013-08-25 11:15:00,69.9,59.3,30.35,NNE,17,0.0,0.0,69,0.00,,,0.00,Wunderground v.1.15,2013-08-25 15:15:00,
2013-08-25 11:20:00,69.9,58.4,30.35,NNE,17,0.0,0.0,67,0.00,,,0.00,Wunderground v.1.15,2013-08-25 15:20:00,
2013-08-25 11:30:00,71.1,60.0,30.35,NNE,17,0.0,0.0,68,0.00,,,0.00,Wunderground v.1.15,2013-08-25 15:30:00,
2013-08-25 11:35:00,71.1,60.8,30.35,South,191,1.0,1.0,70,0.00,,,0.00,Wunderground v.1.15,2013-08-25 15:35:00,
2013-08-25 11:40:00,71.1,59.6,30.35,SSW,196,1.0,1.0,67,0.00,,,0.00,Wunderground v.1.15,2013-08-25 15:40:00,
2013-08-25 11:50:00,70.9,59.0,30.36,SSW,200,0.0,0.0,66,0.00,,,0.00,Wunderground v.1.15,2013-08-25 15:50:00,
2013-08-25 12:00:00,71.8,61.5,30.36,SSW,205,0.0,0.0,70,0.00,,,0.00,Wunderground v.1.15,2013-08-25 16:00:00,
2013-08-25 12:05:00,71.6,58.8,30.36,SSW,207,0.0,0.0,64,0.00,,,0.00,Wunderground v.1.15,2013-08-25 16:05:00,
2013-08-25 12:10:00,71.1,57.4,30.36,West,270,0.0,0.0,62,0.00,,,0.00,Wunderground v.1.15,2013-08-25 16:10:00,
2013-08-25 12:20:00,71.3,59.4,30.35,West,261,0.0,0.0,66,0.00,,,0.00,Wunderground v.1.15,2013-08-25 16:20:00,
2013-08-25 12:25:00,71.8,59.4,30.35,West,261,0.0,0.0,65,0.00,,,0.00,Wunderground v.1.15,2013-08-25 16:25:00,
2013-08-25 12:35:00,72.7,57.1,30.35,NNW,343,1.0,4.0,58,0.00,,,0.00,Wunderground v.1.15,2013-08-25 16:35:00,
2013-08-25 12:50:00,72.8,57.2,30.34,NNW,340,0.0,0.0,58,0.00,,,0.00,Wunderground v.1.15,2013-08-25 16:50:00,
2013-08-25 13:00:00,73.5,59.2,30.34,NNW,340,0.0,0.0,61,0.00,,,0.00,Wunderground v.1.15,2013-08-25 17:00:00,
2013-08-25 13:10:00,74.2,57.0,30.33,NNW,340,0.0,0.0,55,0.00,,,0.00,Wunderground v.1.15,2013-08-25 17:10:00,
2013-08-25 13:20:00,74.4,56.7,30.33,NNW,343,1.0,1.0,54,0.00,,,0.00,Wunderground v.1.15,2013-08-25 17:20:00,
2013-08-25 13:30:00,74.2,53.8,30.33,NNW,343,0.0,0.0,49,0.00,,,0.00,Wunderground v.1.15,2013-08-25 17:30:00,
2013-08-25 13:40:00,74.7,56.4,30.32,NNW,344,0.0,0.0,53,0.00,,,0.00,Wunderground v.1.15,2013-08-25 17:40:00,
2013-08-25 13:45:00,75.1,57.3,30.32,NNW,343,0.0,0.0,54,0.00,,,0.00,Wunderground v.1.15,2013-08-25 17:45:00,
2013-08-25 13:50:00,75.4,57.6,30.32,North,349,0.0,1.0,54,0.00,,,0.00,Wunderground v.1.15,2013-08-25 17:50:00,
2013-08-25 13:55:00,75.3,58.0,30.32,North,350,0.0,1.0,55,0.00,,,0.00,Wunderground v.1.15,2013-08-25 17:55:00,
2013-08-25 14:05:00,75.4,58.6,30.32,North,350,0.0,0.0,56,0.00,,,0.00,Wunderground v.1.15,2013-08-25 18:05:00,
2013-08-25 14:10:00,76.0,56.0,30.32,North,350,0.0,0.0,50,0.00,,,0.00,Wunderground v.1.15,2013-08-25 18:10:00,
2013-08-25 14:20:00,76.0,54.9,30.32,North,350,0.0,0.0,48,0.00,,,0.00,Wunderground v.1.15,2013-08-25 18:20:00,
2013-08-25 14:30:00,76.0,59.7,30.31,North,350,1.0,1.0,57,0.00,,,0.00,Wunderground v.1.15,2013-08-25 18:30:00,
2013-08-25 14:40:00,75.6,56.7,30.31,North,351,2.0,2.0,52,0.00,,,0.00,Wunderground v.1.15,2013-08-25 18:40:00,
2013-08-25 14:45:00,75.8,60.9,30.31,North,351,0.0,2.0,60,0.00,,,0.00,Wunderground v.1.15,2013-08-25 18:45:00,
2013-08-25 14:50:00,75.8,59.0,30.30,North,5,0.0,0.0,56,0.00,,,0.00,Wunderground v.1.15,2013-08-25 18:50:00,
2013-08-25 15:00:00,76.1,59.3,30.30,North,5,0.0,0.0,56,0.00,,,0.00,Wunderground v.1.15,2013-08-25 19:00:00,
2013-08-25 15:10:00,76.5,58.6,30.30,North,5,1.0,1.0,54,0.00,,,0.00,Wunderground v.1.15,2013-08-25 19:10:00,
2013-08-25 15:15:00,77.0,58.6,30.29,North,5,1.0,1.0,53,0.00,,,0.00,Wunderground v.1.15,2013-08-25 19:15:00,
2013-08-25 15:25:00,77.0,56.9,30.28,North,5,1.0,4.0,50,0.00,,,0.00,Wunderground v.1.15,2013-08-25 19:25:00,
2013-08-25 15:30:00,76.7,59.8,30.28,North,5,1.0,1.0,56,0.00,,,0.00,Wunderground v.1.15,2013-08-25 19:30:00,
2013-08-25 15:40:00,77.0,58.0,30.28,North,5,0.0,0.0,52,0.00,,,0.00,Wunderground v.1.15,2013-08-25 19:40:00,
2013-08-25 15:50:00,76.3,55.7,30.28,North,5,1.0,1.0,49,0.00,,,0.00,Wunderground v.1.15,2013-08-25 19:50:00,
2013-08-25 16:00:00,76.5,58.6,30.28,North,5,0.0,1.0,54,0.00,,,0.00,Wunderground v.1.15,2013-08-25 20:00:00,
2013-08-25 16:10:00,76.8,55.6,30.28,North,5,1.0,1.0,48,0.00,,,0.00,Wunderground v.1.15,2013-08-25 20:10:00,
2013-08-25 16:20:00,77.4,56.7,30.27,North,5,0.0,0.0,49,0.00,,,0.00,Wunderground v.1.15,2013-08-25 20:20:00,
2013-08-25 16:30:00,77.6,58.6,30.28,North,5,0.0,0.0,52,0.00,,,0.00,Wunderground v.1.15,2013-08-25 20:30:00,
2013-08-25 16:35:00,77.6,58.0,30.28,North,5,0.0,0.0,51,0.00,,,0.00,Wunderground v.1.15,2013-08-25 20:35:00,
2013-08-25 16:40:00,77.4,56.2,30.27,North,5,1.0,1.0,48,0.00,,,0.00,Wunderground v.1.15,2013-08-25 20:40:00,
2013-08-25 16:50:00,76.5,55.9,30.27,North,5,1.0,1.0,49,0.00,,,0.00,Wunderground v.1.15,2013-08-25 20:50:00,
2013-08-25 16:55:00,76.7,57.2,30.28,North,5,0.0,1.0,51,0.00,,,0.00,Wunderground v.1.15,2013-08-25 20:55:00,
2013-08-25 17:05:00,77.0,57.5,30.27,North,5,1.0,1.0,51,0.00,,,0.00,Wunderground v.1.15,2013-08-25 21:05:00,
2013-08-25 17:10:00,76.7,57.7,30.27,North,5,2.0,2.0,52,0.00,,,0.00,Wunderground v.1.15,2013-08-25 21:10:00,
2013-08-25 17:20:00,76.8,57.8,30.27,North,5,1.0,1.0,52,0.00,,,0.00,Wunderground v.1.15,2013-08-25 21:20:00,
2013-08-25 17:25:00,76.7,58.3,30.27,North,5,1.0,1.0,53,0.00,,,0.00,Wunderground v.1.15,2013-08-25 21:25:00,
2013-08-25 17:30:00,76.8,58.4,30.27,North,5,1.0,1.0,53,0.00,,,0.00,Wunderground v.1.15,2013-08-25 21:30:00,
2013-08-25 17:40:00,76.8,58.9,30.27,North,5,1.0,1.0,54,0.00,,,0.00,Wunderground v.1.15,2013-08-25 21:40:00,
2013-08-25 17:50:00,76.5,58.1,30.27,North,5,1.0,1.0,53,0.00,,,0.00,Wunderground v.1.15,2013-08-25 21:50:00,
2013-08-25 17:55:00,76.5,58.1,30.27,North,5,0.0,1.0,53,0.00,,,0.00,Wunderground v.1.15,2013-08-25 21:55:00,
2013-08-25 18:00:00,76.3,59.4,30.27,North,5,0.0,0.0,56,0.00,,,0.00,Wunderground v.1.15,2013-08-25 22:00:00,
2013-08-25 18:10:00,76.0,57.6,30.27,North,5,1.0,1.0,53,0.00,,,0.00,Wunderground v.1.15,2013-08-25 22:10:00,
2013-08-25 18:20:00,75.8,58.0,30.27,North,5,1.0,1.0,54,0.00,,,0.00,Wunderground v.1.15,2013-08-25 22:20:00,
2013-08-25 18:30:00,75.6,57.8,30.26,North,5,0.0,0.0,54,0.00,,,0.00,Wunderground v.1.15,2013-08-25 22:30:00,
2013-08-25 18:40:00,75.4,59.1,30.26,North,5,0.0,0.0,57,0.00,,,0.00,Wunderground v.1.15,2013-08-25 22:40:00,
2013-08-25 18:50:00,75.3,59.0,30.26,North,5,0.0,1.0,57,0.00,,,0.00,Wunderground v.1.15,2013-08-25 22:50:00,
2013-08-25 19:00:00,75.1,59.3,30.26,North,5,0.0,0.0,58,0.00,,,0.00,Wunderground v.1.15,2013-08-25 23:00:00,
2013-08-25 19:10:00,74.7,59.9,30.26,North,5,0.0,0.0,60,0.00,,,0.00,Wunderground v.1.15,2013-08-25 23:10:00,
2013-08-25 19:20:00,74.0,60.2,30.26,North,5,0.0,0.0,62,0.00,,,0.00,Wunderground v.1.15,2013-08-25 23:20:00,
2013-08-25 19:30:00,73.2,59.8,30.26,North,5,0.0,0.0,63,0.00,,,0.00,Wunderground v.1.15,2013-08-25 23:30:00,
2013-08-25 19:40:00,72.1,60.1,30.26,North,5,0.0,0.0,66,0.00,,,0.00,Wunderground v.1.15,2013-08-25 23:40:00,
2013-08-25 19:45:00,71.6,60.1,30.26,North,5,0.0,0.0,67,0.00,,,0.00,Wunderground v.1.15,2013-08-25 23:45:00,
2013-08-25 19:55:00,70.1,59.5,30.26,North,5,0.0,0.0,69,0.00,,,0.00,Wunderground v.1.15,2013-08-25 23:55:00,
2013-08-25 20:00:00,69.6,59.8,30.26,North,5,0.0,0.0,71,0.00,,,0.00,Wunderground v.1.15,2013-08-26 00:00:00,
2013-08-25 20:10:00,68.8,59.8,30.26,North,5,0.0,0.0,73,0.00,,,0.00,Wunderground v.1.15,2013-08-26 00:10:00,
2013-08-25 20:20:00,67.6,59.8,30.27,North,5,0.0,0.0,76,0.00,,,0.00,Wunderground v.1.15,2013-08-26 00:20:00,
2013-08-25 20:30:00,66.6,59.5,30.27,North,5,0.0,0.0,78,0.00,,,0.00,Wunderground v.1.15,2013-08-26 00:30:00,
2013-08-25 20:40:00,65.8,59.5,30.27,North,5,0.0,0.0,80,0.00,,,0.00,Wunderground v.1.15,2013-08-26 00:40:00,
2013-08-25 20:45:00,65.3,59.0,30.27,North,5,0.0,0.0,80,0.00,,,0.00,Wunderground v.1.15,2013-08-26 00:45:00,
2013-08-25 20:55:00,64.5,58.9,30.27,North,5,0.0,0.0,82,0.00,,,0.00,Wunderground v.1.15,2013-08-26 00:55:00,
2013-08-25 21:05:00,63.9,59.0,30.28,North,5,0.0,0.0,84,0.00,,,0.00,Wunderground v.1.15,2013-08-26 01:05:00,
2013-08-25 21:10:00,63.4,58.8,30.28,North,5,0.0,0.0,85,0.00,,,0.00,Wunderground v.1.15,2013-08-26 01:10:00,
2013-08-25 21:20:00,62.9,58.6,30.28,North,5,0.0,0.0,86,0.00,,,0.00,Wunderground v.1.15,2013-08-26 01:20:00,
2013-08-25 21:30:00,62.3,58.4,30.28,North,5,0.0,0.0,87,0.00,,,0.00,Wunderground v.1.15,2013-08-26 01:30:00,
2013-08-25 21:40:00,61.8,58.5,30.29,North,5,0.0,0.0,89,0.00,,,0.00,Wunderground v.1.15,2013-08-26 01:40:00,
2013-08-25 21:50:00,61.5,58.2,30.29,North,5,0.0,0.0,89,0.00,,,0.00,Wunderground v.1.15,2013-08-26 01:50:00,
2013-08-25 22:00:00,61.0,58.0,30.30,North,5,0.0,0.0,90,0.00,,,0.00,Wunderground v.1.15,2013-08-26 02:00:00,
2013-08-25 22:10:00,60.5,57.6,30.29,North,5,0.0,0.0,90,0.00,,,0.00,Wunderground v.1.15,2013-08-26 02:10:00,
2013-08-25 22:15:00,60.4,57.5,30.29,North,5,0.0,0.0,90,0.00,,,0.00,Wunderground v.1.15,2013-08-26 02:15:00,
2013-08-25 22:25:00,59.9,57.3,30.29,North,5,0.0,0.0,91,0.00,,,0.00,Wunderground v.1.15,2013-08-26 02:25:00,
2013-08-25 22:30:00,59.6,57.0,30.30,North,5,0.0,0.0,91,0.00,,,0.00,Wunderground v.1.15,2013-08-26 02:30:00,
2013-08-25 22:35:00,59.5,57.2,30.30,North,5,0.0,0.0,92,0.00,,,0.00,Wunderground v.1.15,2013-08-26 02:35:00,
2013-08-25 22:40:00,59.3,57.0,30.30,North,5,0.0,0.0,92,0.00,,,0.00,Wunderground v.1.15,2013-08-26 02:40:00,
2013-08-25 22:45:00,59.2,56.9,30.30,North,5,0.0,0.0,92,0.00,,,0.00,Wunderground v.1.15,2013-08-26 02:45:00,
2013-08-25 22:50:00,58.9,56.6,30.30,North,5,0.0,0.0,92,0.00,,,0.00,Wunderground v.1.15,2013-08-26 02:50:00,
2013-08-25 22:55:00,58.7,56.7,30.30,North,5,0.0,0.0,93,0.00,,,0.00,Wunderground v.1.15,2013-08-26 02:55:00,
2013-08-25 23:00:00,58.6,56.6,30.31,North,5,0.0,0.0,93,0.00,,,0.00,Wunderground v.1.15,2013-08-26 03:00:00,
2013-08-25 23:10:00,58.4,56.7,30.30,North,5,0.0,0.0,94,0.00,,,0.00,Wunderground v.1.15,2013-08-26 03:10:00,
2013-08-25 23:15:00,58.3,56.3,30.30,North,5,0.0,0.0,93,0.00,,,0.00,Wunderground v.1.15,2013-08-26 03:15:00,
2013-08-25 23:20:00,58.3,56.6,30.30,North,5,0.0,0.0,94,0.00,,,0.00,Wunderground v.1.15,2013-08-26 03:20:00,
2013-08-25 23:30:00,58.3,56.6,30.30,North,5,0.0,0.0,94,0.00,,,0.00,Wunderground v.1.15,2013-08-26 03:30:00,
2013-08-25 23:35:00,58.1,56.4,30.30,North,5,0.0,0.0,94,0.00,,,0.00,Wunderground v.1.15,2013-08-26 03:35:00,
2013-08-25 23:40:00,58.0,56.6,30.30,North,5,0.0,0.0,95,0.00,,,0.00,Wunderground v.1.15,2013-08-26 03:40:00,
2013-08-25 23:50:00,57.6,56.2,30.31,North,5,0.0,0.0,95,0.00,,,0.00,Wunderground v.1.15,2013-08-26 03:50:00,
2013-08-25 23:55:00,57.5,56.1,30.31,North,5,0.0,0.0,95,0.00,,,0.00,Wunderground v.1.15,2013-08-26 03:55:00,